Seaspan Chiwan — VRBH3 — position and weather

sailwx.info

Track history (hours):
 
Tides and Currents Weather Stations Pressure Air Temp Water Temp Dewpoint Dewpoint Depression Visibility Wind Speed Wind Dir Waves Ship Positions

Seaspan Chiwan

Last reported at 2015-Jul-22 19:16 UTC. Time now 2015-Jul-31 01:03 UTC.
Position N 16°10' W 062°53'.
Warning: this ship's position is 8 days out of date.

Length 260 m; draft 12.3 m.

Type: Cargo ship. MMSI: 477014500.

Date/timePositionNaut miles runAvg speedWind from/ knotsBaromVisibWave heightAir tempDewpointWater temp
2015-Jul-22 19:16N 16°10' W 062°53'1216.5
2015-Jul-22 18:33N 16°14' W 062°42'1916.8
2015-Jul-22 17:27N 16°21' W 062°24'1516.5
2015-Jul-22 16:33N 16°26' W 062°09'1616.4
2015-Jul-22 15:33N 16°33' W 061°54'1616.1
2015-Jul-22 14:33N 16°41' W 061°39'1616.0
2015-Jul-22 13:34N 16°49' W 061°24'1616.1
2015-Jul-22 12:33N 16°56' W 061°10'1615.8
2015-Jul-22 11:33N 17°04' W 060°55'  
2015-Jul-15 23:32N 31°44' W 017°54'1615.9
2015-Jul-15 22:33N 31°48' W 017°36'1615.9
2015-Jul-15 21:33N 31°51' W 017°18'1616.0
2015-Jul-15 20:34N 31°54' W 016°60'1615.9
2015-Jul-15 19:33N 31°58' W 016°41'1716.2
2015-Jul-15 18:32N 32°03' W 016°22'1616.1
2015-Jul-15 17:33N 32°10' W 016°06'1616.0
2015-Jul-15 16:33N 32°17' W 015°49'1615.9
2015-Jul-15 15:33N 32°25' W 015°33'1616.3
2015-Jul-15 14:33N 32°32' W 015°15'1616.3
2015-Jul-15 13:33N 32°39' W 014°58'1616.2
2015-Jul-15 12:33N 32°46' W 014°41'1616.0
2015-Jul-15 11:33N 32°54' W 014°24'1716.0
2015-Jul-15 10:31N 33°01' W 014°06'1616.3
2015-Jul-15 09:31N 33°08' W 013°49'1616.2
2015-Jul-15 08:33N 33°15' W 013°32'1616.2
2015-Jul-15 07:33N 33°23' W 013°15'1616.3
2015-Jul-15 06:33N 33°30' W 012°57'1616.4
2015-Jul-15 05:33N 33°37' W 012°40'1616.4
2015-Jul-15 04:33N 33°44' W 012°22'1716.6
2015-Jul-15 03:33N 33°52' W 012°04'1716.8
2015-Jul-15 02:33N 33°60' W 011°46'1616.4
2015-Jul-15 01:34N 34°07' W 011°28'1616.1
2015-Jul-15 00:34N 34°14' W 011°11'1616.2
2015-Jul-14 23:33N 34°21' W 010°54'1616.3
2015-Jul-14 22:33N 34°29' W 010°36'1616.5
2015-Jul-14 21:33N 34°36' W 010°18'1616.2
2015-Jul-14 20:33N 34°43' W 010°00'1616.3
2015-Jul-14 19:33N 34°51' W 009°43'1616.3
2015-Jul-14 18:34N 34°58' W 009°25'1616.3
2015-Jul-14 17:33N 35°06' W 009°07'1616.4
2015-Jul-14 16:34N 35°13' W 008°49'1616.4
2015-Jul-14 15:34N 35°20' W 008°32'1616.4
2015-Jul-14 14:33N 35°27' W 008°13'1616.5
2015-Jul-14 13:34N 35°35' W 007°55'1716.6
2015-Jul-14 12:33N 35°42' W 007°37'1716.6
2015-Jul-14 11:33N 35°50' W 007°19'1616.3
2015-Jul-14 10:33N 35°57' W 007°01'1917.6
2015-Jul-14 09:30N 35°58' W 006°38'1717.9
2015-Jul-14 08:33N 35°57' W 006°17'1817.5
2015-Jul-14 07:33N 35°57' W 005°55'1616.2
2015-Jul-14 06:33N 35°58' W 005°35'1515.0
2015-Jul-14 05:33N 36°01' W 005°18'11015.7
2015-Jul-13 22:33N 36°19' W 003°03'1616.6
2015-Jul-13 21:33N 36°21' W 002°43'1616.1
2015-Jul-13 20:34N 36°24' W 002°23'1615.7
2015-Jul-13 19:33N 36°29' W 002°05'1615.9
2015-Jul-13 18:34N 36°40' W 001°51'1616.3
2015-Jul-13 17:33N 36°52' W 001°36'1615.9
2015-Jul-13 16:34N 37°01' W 001°21'1616.2
2015-Jul-13 15:33N 37°12' W 001°05'1716.6
2015-Jul-13 14:33N 37°23' W 000°50'1716.6
2015-Jul-13 13:33N 37°34' W 000°34'1716.8
2015-Jul-13 12:34N 37°48' W 000°22'1716.7
2015-Jul-13 11:33N 38°02' W 000°12'1716.6
2015-Jul-13 10:33N 38°16' E 000°01'1616.3
2015-Jul-13 09:33N 38°30' E 000°12'1616.0
2015-Jul-13 08:33N 38°43' E 000°23'1514.3
2015-Jul-13 07:30N 38°57' E 000°16'3216.3
2015-Jul-13 05:33N 39°22' W 000°10'9 8.8
2015-Jul-13 04:33N 39°27' W 000°19'0 0.0
2015-Jul-13 03:33N 39°27' W 000°19'0 0.0
2015-Jul-13 02:33N 39°27' W 000°19'0 0.0
2015-Jul-13 01:33N 39°27' W 000°19'0 0.0
2015-Jul-13 00:33N 39°27' W 000°19'0 0.0
2015-Jul-12 23:33N 39°27' W 000°19'0 0.0
2015-Jul-12 22:33N 39°27' W 000°19'0 0.0
2015-Jul-12 21:33N 39°27' W 000°19'0 0.0
2015-Jul-12 20:30N 39°27' W 000°19'0 0.0
2015-Jul-12 19:33N 39°27' W 000°19'  
Track history (hours):
 
Tides and Currents Weather Stations Pressure Air Temp Water Temp Dewpoint Dewpoint Depression Visibility Wind Speed Wind Dir Waves Ship Positions

Seaspan Chiwan

Last reported at 2015-Jul-22 19:16 UTC. Time now 2015-Jul-31 01:03 UTC.
Position N 16°10' W 062°53'.
Warning: this ship's position is 8 days out of date.

Length 260 m; draft 12.3 m.

Type: Cargo ship. MMSI: 477014500.

Date/timePositionNaut miles runAvg speedWind from/ knotsBaromVisibWave heightAir tempDewpointWater temp
2015-Jul-22 19:16N 16°10' W 062°53'1216.5
2015-Jul-22 18:33N 16°14' W 062°42'1916.8
2015-Jul-22 17:27N 16°21' W 062°24'1516.5
2015-Jul-22 16:33N 16°26' W 062°09'1616.4
2015-Jul-22 15:33N 16°33' W 061°54'1616.1
2015-Jul-22 14:33N 16°41' W 061°39'1616.0
2015-Jul-22 13:34N 16°49' W 061°24'1616.1
2015-Jul-22 12:33N 16°56' W 061°10'1615.8
2015-Jul-22 11:33N 17°04' W 060°55'  
2015-Jul-15 23:32N 31°44' W 017°54'1615.9
2015-Jul-15 22:33N 31°48' W 017°36'1615.9
2015-Jul-15 21:33N 31°51' W 017°18'1616.0
2015-Jul-15 20:34N 31°54' W 016°60'1615.9
2015-Jul-15 19:33N 31°58' W 016°41'1716.2
2015-Jul-15 18:32N 32°03' W 016°22'1616.1
2015-Jul-15 17:33N 32°10' W 016°06'1616.0
2015-Jul-15 16:33N 32°17' W 015°49'1615.9
2015-Jul-15 15:33N 32°25' W 015°33'1616.3
2015-Jul-15 14:33N 32°32' W 015°15'1616.3
2015-Jul-15 13:33N 32°39' W 014°58'1616.2
2015-Jul-15 12:33N 32°46' W 014°41'1616.0
2015-Jul-15 11:33N 32°54' W 014°24'1716.0
2015-Jul-15 10:31N 33°01' W 014°06'1616.3
2015-Jul-15 09:31N 33°08' W 013°49'1616.2
2015-Jul-15 08:33N 33°15' W 013°32'1616.2
2015-Jul-15 07:33N 33°23' W 013°15'1616.3
2015-Jul-15 06:33N 33°30' W 012°57'1616.4
2015-Jul-15 05:33N 33°37' W 012°40'1616.4
2015-Jul-15 04:33N 33°44' W 012°22'1716.6
2015-Jul-15 03:33N 33°52' W 012°04'1716.8
2015-Jul-15 02:33N 33°60' W 011°46'1616.4
2015-Jul-15 01:34N 34°07' W 011°28'1616.1
2015-Jul-15 00:34N 34°14' W 011°11'1616.2
2015-Jul-14 23:33N 34°21' W 010°54'1616.3
2015-Jul-14 22:33N 34°29' W 010°36'1616.5
2015-Jul-14 21:33N 34°36' W 010°18'1616.2
2015-Jul-14 20:33N 34°43' W 010°00'1616.3
2015-Jul-14 19:33N 34°51' W 009°43'1616.3
2015-Jul-14 18:34N 34°58' W 009°25'1616.3
2015-Jul-14 17:33N 35°06' W 009°07'1616.4
2015-Jul-14 16:34N 35°13' W 008°49'1616.4
2015-Jul-14 15:34N 35°20' W 008°32'1616.4
2015-Jul-14 14:33N 35°27' W 008°13'1616.5
2015-Jul-14 13:34N 35°35' W 007°55'1716.6
2015-Jul-14 12:33N 35°42' W 007°37'1716.6
2015-Jul-14 11:33N 35°50' W 007°19'1616.3
2015-Jul-14 10:33N 35°57' W 007°01'1917.6
2015-Jul-14 09:30N 35°58' W 006°38'1717.9
2015-Jul-14 08:33N 35°57' W 006°17'1817.5
2015-Jul-14 07:33N 35°57' W 005°55'1616.2
2015-Jul-14 06:33N 35°58' W 005°35'1515.0
2015-Jul-14 05:33N 36°01' W 005°18'11015.7
2015-Jul-13 22:33N 36°19' W 003°03'1616.6
2015-Jul-13 21:33N 36°21' W 002°43'1616.1
2015-Jul-13 20:34N 36°24' W 002°23'1615.7
2015-Jul-13 19:33N 36°29' W 002°05'1615.9
2015-Jul-13 18:34N 36°40' W 001°51'1616.3
2015-Jul-13 17:33N 36°52' W 001°36'1615.9
2015-Jul-13 16:34N 37°01' W 001°21'1616.2
2015-Jul-13 15:33N 37°12' W 001°05'1716.6
2015-Jul-13 14:33N 37°23' W 000°50'1716.6
2015-Jul-13 13:33N 37°34' W 000°34'1716.8
2015-Jul-13 12:34N 37°48' W 000°22'1716.7
2015-Jul-13 11:33N 38°02' W 000°12'1716.6
2015-Jul-13 10:33N 38°16' E 000°01'1616.3
2015-Jul-13 09:33N 38°30' E 000°12'1616.0
2015-Jul-13 08:33N 38°43' E 000°23'1514.3
2015-Jul-13 07:30N 38°57' E 000°16'3216.3
2015-Jul-13 05:33N 39°22' W 000°10'9 8.8
2015-Jul-13 04:33N 39°27' W 000°19'0 0.0
2015-Jul-13 03:33N 39°27' W 000°19'0 0.0
2015-Jul-13 02:33N 39°27' W 000°19'0 0.0
2015-Jul-13 01:33N 39°27' W 000°19'0 0.0
2015-Jul-13 00:33N 39°27' W 000°19'0 0.0
2015-Jul-12 23:33N 39°27' W 000°19'0 0.0
2015-Jul-12 22:33N 39°27' W 000°19'0 0.0
2015-Jul-12 21:33N 39°27' W 000°19'0 0.0
2015-Jul-12 20:30N 39°27' W 000°19'0 0.0
2015-Jul-12 19:33N 39°27' W 000°19'  

Dump ship's entire track history